createdAt,value
2019-02-28T00:01:34.435Z,9.23
2019-02-28T00:04:06.718Z,12.67
2019-02-28T00:06:39.363Z,9.30
2019-02-28T00:09:11.450Z,9.93
2019-02-28T00:11:43.831Z,10.70
2019-02-28T00:14:16.174Z,9.53
2019-02-28T00:16:48.818Z,9.40
2019-02-28T00:19:24.030Z,10.87
2019-02-28T00:21:55.355Z,9.87
2019-02-28T00:24:30.058Z,11.13
2019-02-28T00:27:01.931Z,9.53
2019-02-28T00:29:34.425Z,10.07
2019-02-28T00:32:06.663Z,10.93
2019-02-28T00:34:39.860Z,9.33
2019-02-28T00:37:12.132Z,9.07
2019-02-28T00:39:44.312Z,11.27
2019-02-28T00:42:17.716Z,8.53
2019-02-28T00:44:50.469Z,12.17
2019-02-28T00:47:22.950Z,10.50
2019-02-28T00:49:56.490Z,9.57
2019-02-28T00:52:28.847Z,10.40
2019-02-28T00:55:01.130Z,9.70
2019-02-28T00:57:33.457Z,13.43
2019-02-28T01:00:06.394Z,7.77
2019-02-28T01:02:38.710Z,9.23
2019-02-28T01:05:11.162Z,9.43
2019-02-28T01:07:43.353Z,9.23
2019-02-28T01:10:15.713Z,9.50
2019-02-28T01:12:53.106Z,9.63
2019-02-28T01:15:21.866Z,10.57
2019-02-28T01:17:57.166Z,10.60
2019-02-28T01:20:28.354Z,11.30
2019-02-28T01:23:00.754Z,12.90
2019-02-28T01:25:32.846Z,9.93
2019-02-28T01:28:05.767Z,10.73
2019-02-28T01:30:40.570Z,10.87
2019-02-28T01:33:12.121Z,9.33
2019-02-28T01:35:44.239Z,10.70
2019-02-28T01:38:16.380Z,11.03
2019-02-28T01:40:48.693Z,12.23
2019-02-28T01:43:20.855Z,11.73
2019-02-28T01:45:53.250Z,10.93
2019-02-28T01:48:25.598Z,11.40
2019-02-28T01:51:00.837Z,8.17
2019-02-28T01:53:32.258Z,10.80
2019-02-28T01:56:04.466Z,12.27
2019-02-28T01:58:36.748Z,12.07
2019-02-28T02:01:08.965Z,9.87
2019-02-28T02:03:41.758Z,11.17
2019-02-28T02:06:13.967Z,12.53
2019-02-28T02:08:46.223Z,11.37
2019-02-28T02:11:18.417Z,10.60
2019-02-28T02:13:50.654Z,9.27
2019-02-28T02:16:26.768Z,11.13
2019-02-28T02:18:56.966Z,11.83
2019-02-28T02:21:31.392Z,10.60
2019-02-28T02:24:03.317Z,10.73
2019-02-28T02:26:35.662Z,13.37
2019-02-28T02:29:08.002Z,13.50
2019-02-28T02:31:42.585Z,12.50
2019-02-28T02:34:14.406Z,13.13
2019-02-28T02:36:53.057Z,12.20
2019-02-28T02:39:21.011Z,10.00
2019-02-28T02:41:53.224Z,11.80
2019-02-28T02:44:30.736Z,11.57
2019-02-28T02:46:59.456Z,14.23
2019-02-28T02:49:31.578Z,12.33
2019-02-28T02:52:04.108Z,13.23
2019-02-28T02:54:36.350Z,11.67
2019-02-28T02:57:08.867Z,12.97
2019-02-28T02:59:41.260Z,14.67
2019-02-28T03:02:13.993Z,13.13
2019-02-28T03:04:46.128Z,13.97
2019-02-28T03:07:23.322Z,14.37
2019-02-28T03:09:52.477Z,13.27
2019-02-28T03:12:24.561Z,13.00
2019-02-28T03:14:56.707Z,16.27
2019-02-28T03:17:29.310Z,16.83
2019-02-28T03:20:01.745Z,13.00
2019-02-28T03:22:34.338Z,14.67
2019-02-28T03:25:07.438Z,13.13
2019-02-28T03:27:39.741Z,16.60
2019-02-28T03:30:26.241Z,14.03
2019-02-28T03:32:48.108Z,17.03
2019-02-28T03:35:20.377Z,14.27
2019-02-28T03:37:52.463Z,14.83
2019-02-28T03:40:24.942Z,20.53
2019-02-28T03:42:57.236Z,16.53
2019-02-28T03:45:33.884Z,17.17
2019-02-28T03:48:03.846Z,15.77
2019-02-28T03:50:37.733Z,12.70
2019-02-28T03:53:09.940Z,13.50
2019-02-28T03:55:42.236Z,19.47
2019-02-28T03:58:14.389Z,15.70
2019-02-28T04:00:46.922Z,14.97
2019-02-28T04:03:19.327Z,17.03
2019-02-28T04:05:51.650Z,18.40
2019-02-28T04:08:29.331Z,18.60
2019-02-28T04:10:58.111Z,19.33
2019-02-28T04:13:30.232Z,21.47
2019-02-28T04:16:08.918Z,23.47
2019-02-28T04:18:44.363Z,19.80
2019-02-28T04:21:12.184Z,18.53
2019-02-28T04:23:44.526Z,18.10
2019-02-28T04:26:17.025Z,19.47
2019-02-28T04:28:53.284Z,19.17
2019-02-28T04:31:23.713Z,19.37
2019-02-28T04:33:55.942Z,20.60
2019-02-28T04:36:28.155Z,20.77
2019-02-28T04:39:00.388Z,19.23
2019-02-28T04:41:33.545Z,19.60
2019-02-28T04:44:05.879Z,20.37
2019-02-28T04:46:38.216Z,20.03
2019-02-28T04:49:10.606Z,21.47
2019-02-28T04:51:42.758Z,21.97
2019-02-28T04:54:14.971Z,24.23
2019-02-28T04:56:48.190Z,22.70
2019-02-28T04:59:20.316Z,20.50
2019-02-28T05:01:52.420Z,22.60
2019-02-28T05:04:24.658Z,23.87
2019-02-28T05:06:56.787Z,23.83
2019-02-28T05:09:29.137Z,23.90
2019-02-28T05:12:02.397Z,24.13
2019-02-28T05:14:36.271Z,23.17
2019-02-28T05:17:08.380Z,24.80
2019-02-28T05:19:41.253Z,26.87
2019-02-28T05:22:16.273Z,23.73
2019-02-28T05:24:48.800Z,27.13
2019-02-28T05:27:20.936Z,29.47
2019-02-28T05:29:53.074Z,24.63
2019-02-28T05:32:25.481Z,27.27
2019-02-28T05:34:57.791Z,34.00
2019-02-28T05:37:29.906Z,27.00
2019-02-28T05:40:05.592Z,26.33
2019-02-28T05:42:36.071Z,30.00
2019-02-28T05:45:11.388Z,30.07
2019-02-28T05:47:46.774Z,26.03
2019-02-28T05:50:17.474Z,29.23
2019-02-28T05:52:50.166Z,26.63
2019-02-28T05:55:25.590Z,25.17
2019-02-28T05:57:56.473Z,28.07
2019-02-28T06:00:28.600Z,27.70
2019-02-28T06:03:02.599Z,28.57
2019-02-28T06:05:34.634Z,29.77
2019-02-28T06:08:06.861Z,30.90
2019-02-28T06:10:39.058Z,30.10
2019-02-28T06:13:11.855Z,30.20
2019-02-28T06:15:44.081Z,31.07
2019-02-28T06:18:16.575Z,30.07
2019-02-28T06:20:51.443Z,27.67
2019-02-28T06:23:22.961Z,30.33
2019-02-28T06:25:55.884Z,27.10
2019-02-28T06:28:31.014Z,31.17
2019-02-28T06:31:03.985Z,27.23
2019-02-28T06:33:36.213Z,32.50
2019-02-28T06:36:08.667Z,30.53
2019-02-28T06:38:41.156Z,31.93
2019-02-28T06:41:13.567Z,36.50
2019-02-28T06:43:45.930Z,36.03
2019-02-28T06:46:18.324Z,35.03
2019-02-28T06:48:50.791Z,29.33
2019-02-28T06:51:23.003Z,33.77
2019-02-28T06:53:55.393Z,31.37
2019-02-28T06:56:27.743Z,33.67
2019-02-28T06:58:59.976Z,35.37
2019-02-28T07:01:32.710Z,34.30
2019-02-28T07:04:04.994Z,35.57
2019-02-28T07:06:37.364Z,34.27
2019-02-28T07:09:09.581Z,36.33
2019-02-28T07:11:42.134Z,32.13
2019-02-28T07:14:14.399Z,37.63
2019-02-28T07:16:47.827Z,36.60
2019-02-28T07:19:20.177Z,40.77
2019-02-28T07:21:53.314Z,38.73
2019-02-28T07:24:26.055Z,39.03
2019-02-28T07:26:58.372Z,38.73
2019-02-28T07:29:32.117Z,35.67
2019-02-28T07:32:04.514Z,45.47
2019-02-28T07:34:36.757Z,46.07
2019-02-28T07:37:08.883Z,41.73
2019-02-28T07:39:41.344Z,43.23
2019-02-28T07:42:13.685Z,44.67
2019-02-28T07:44:45.951Z,40.93
2019-02-28T07:47:18.389Z,41.57
2019-02-28T07:49:50.903Z,43.33
2019-02-28T07:52:22.983Z,52.17
2019-02-28T07:54:55.869Z,44.50
2019-02-28T07:57:28.170Z,46.33
2019-02-28T08:00:00.627Z,53.83
2019-02-28T08:02:35.622Z,43.90
2019-02-28T08:05:07.226Z,50.27
2019-02-28T08:07:39.609Z,47.90
2019-02-28T08:10:16.046Z,50.60
2019-02-28T08:12:48.126Z,51.07
2019-02-28T08:15:22.195Z,51.23
2019-02-28T08:17:54.732Z,50.67
2019-02-28T08:20:30.557Z,49.20
2019-02-28T08:23:01.479Z,46.63
2019-02-28T08:25:33.695Z,56.03
2019-02-28T08:28:06.213Z,56.13
2019-02-28T08:30:38.546Z,53.30
2019-02-28T08:33:10.854Z,54.30
2019-02-28T08:35:43.490Z,52.70
2019-02-28T08:38:16.075Z,52.37
2019-02-28T08:40:52.325Z,50.03
2019-02-28T08:43:27.345Z,57.53
2019-02-28T08:45:58.658Z,55.53
2019-02-28T08:48:32.435Z,56.10
2019-02-28T08:51:05.188Z,53.63
2019-02-28T08:53:37.489Z,56.60
2019-02-28T08:56:10.981Z,43.87
2019-02-28T08:58:44.473Z,61.73
2019-02-28T09:01:17.146Z,53.37
2019-02-28T09:03:50.272Z,50.80
2019-02-28T09:06:22.548Z,50.80
2019-02-28T09:08:56.576Z,60.80
2019-02-28T09:11:29.748Z,52.83
2019-02-28T09:14:01.984Z,56.73
2019-02-28T09:16:36.675Z,63.37
2019-02-28T09:19:09.162Z,46.13
2019-02-28T09:21:41.537Z,53.90
2019-02-28T09:24:13.788Z,55.00
2019-02-28T09:26:46.242Z,54.90
2019-02-28T09:29:21.210Z,53.03
2019-02-28T09:31:56.184Z,56.27
2019-02-28T09:34:30.615Z,55.50
2019-02-28T09:37:02.979Z,62.80
2019-02-28T09:39:35.206Z,60.67
2019-02-28T09:42:07.586Z,55.97
2019-02-28T09:44:40.123Z,47.03
2019-02-28T09:47:13.025Z,45.27
2019-02-28T09:49:47.352Z,57.67
2019-02-28T09:52:20.514Z,58.67
2019-02-28T09:54:52.907Z,51.23
2019-02-28T09:57:25.165Z,55.57
2019-02-28T09:59:57.509Z,55.10
2019-02-28T10:02:30.461Z,47.57
2019-02-28T10:05:06.580Z,54.07
2019-02-28T10:07:37.570Z,52.07
2019-02-28T10:10:13.820Z,50.50
2019-02-28T10:12:46.265Z,49.13
2019-02-28T10:15:19.665Z,51.10
2019-02-28T10:17:51.987Z,56.63
2019-02-28T10:20:27.153Z,52.83
2019-02-28T10:22:59.286Z,55.40
2019-02-28T10:25:31.871Z,50.67
2019-02-28T10:28:04.794Z,49.93
2019-02-28T10:30:37.193Z,50.17
2019-02-28T10:33:09.724Z,55.83
2019-02-28T10:35:42.644Z,50.83
2019-02-28T10:38:15.028Z,50.07
2019-02-28T10:40:49.344Z,54.27
2019-02-28T10:43:21.698Z,51.37
2019-02-28T10:45:54.366Z,56.87
2019-02-28T10:48:26.846Z,55.43
2019-02-28T10:50:59.257Z,49.50
2019-02-28T10:53:32.118Z,46.50
2019-02-28T10:56:04.944Z,49.47
2019-02-28T10:58:37.337Z,52.00
2019-02-28T11:01:10.834Z,53.20
2019-02-28T11:03:43.077Z,48.47
2019-02-28T11:06:15.554Z,50.33
2019-02-28T11:08:48.909Z,50.57
2019-02-28T11:11:21.801Z,46.17
2019-02-28T11:13:54.643Z,50.77
2019-02-28T11:16:27.012Z,51.17
2019-02-28T11:19:00.077Z,49.13
2019-02-28T11:21:32.849Z,51.77
2019-02-28T11:24:05.225Z,49.80
2019-02-28T11:26:37.594Z,50.93
2019-02-28T11:29:10.171Z,51.40
2019-02-28T11:31:42.759Z,34.30
2019-02-28T11:34:15.942Z,51.13
2019-02-28T11:36:48.775Z,45.73
2019-02-28T11:39:21.146Z,50.17
2019-02-28T11:41:53.851Z,48.73
2019-02-28T11:44:26.098Z,51.43
2019-02-28T11:46:58.421Z,45.43
2019-02-28T11:49:30.750Z,47.77
2019-02-28T11:52:03.363Z,51.33
2019-02-28T11:54:35.764Z,51.57
2019-02-28T11:57:08.428Z,44.70
2019-02-28T11:59:41.618Z,52.97
2019-02-28T12:02:14.337Z,50.57
2019-02-28T12:04:46.583Z,52.23
2019-02-28T12:07:19.142Z,51.40
2019-02-28T12:09:54.693Z,51.30
2019-02-28T12:12:25.582Z,50.40
2019-02-28T12:15:02.392Z,48.40
2019-02-28T12:17:31.626Z,53.90
2019-02-28T12:20:04.920Z,57.43
2019-02-28T12:22:37.265Z,50.33
2019-02-28T12:25:11.005Z,41.47
2019-02-28T12:27:43.554Z,49.53
2019-02-28T12:30:18.796Z,50.23
2019-02-28T12:32:52.544Z,49.93
2019-02-28T12:35:25.033Z,53.13
2019-02-28T12:37:57.501Z,50.70
2019-02-28T12:40:30.692Z,56.67
2019-02-28T12:43:05.326Z,53.80
2019-02-28T12:45:37.762Z,50.07
2019-02-28T12:48:10.048Z,53.73
2019-02-28T12:50:42.786Z,51.17
2019-02-28T12:53:15.165Z,48.37
2019-02-28T12:55:47.536Z,48.80
2019-02-28T12:58:20.698Z,54.00
2019-02-28T13:00:56.483Z,50.13
2019-02-28T13:03:27.365Z,53.97
2019-02-28T13:06:00.040Z,50.43
2019-02-28T13:08:32.538Z,47.20
2019-02-28T13:11:05.150Z,49.63
2019-02-28T13:13:37.695Z,47.93
2019-02-28T13:16:10.073Z,48.63
2019-02-28T13:18:43.699Z,49.00
2019-02-28T13:21:16.821Z,45.97
2019-02-28T13:23:49.179Z,42.97
2019-02-28T13:26:21.353Z,45.57
2019-02-28T13:28:54.639Z,50.53
2019-02-28T13:31:27.992Z,48.23
2019-02-28T13:34:01.195Z,47.00
2019-02-28T13:36:33.704Z,52.10
2019-02-28T13:39:07.578Z,51.80
2019-02-28T13:41:39.982Z,48.27
2019-02-28T13:44:12.269Z,46.53
2019-02-28T13:46:44.521Z,47.33
2019-02-28T13:49:17.055Z,42.67
2019-02-28T13:51:49.430Z,49.20
2019-02-28T13:54:22.143Z,46.00
2019-02-28T13:56:54.418Z,40.50
2019-02-28T13:59:28.488Z,46.10
2019-02-28T14:02:01.043Z,45.97
2019-02-28T14:04:33.388Z,36.93
2019-02-28T14:07:07.381Z,51.93
2019-02-28T14:09:40.655Z,44.50
2019-02-28T14:12:12.960Z,49.07
2019-02-28T14:14:45.089Z,52.27
2019-02-28T14:17:17.472Z,54.70
2019-02-28T14:19:52.675Z,28.30
2019-02-28T14:22:24.085Z,40.83
2019-02-28T14:24:56.784Z,35.93
2019-02-28T14:27:29.175Z,46.87
2019-02-28T14:30:01.933Z,53.37
2019-02-28T14:32:34.324Z,46.07
2019-02-28T14:35:07.070Z,54.10
2019-02-28T14:37:39.455Z,50.67
2019-02-28T14:40:14.618Z,51.00
2019-02-28T14:42:46.137Z,42.60
2019-02-28T14:45:18.860Z,50.47
2019-02-28T14:47:57.028Z,50.73
2019-02-28T14:50:25.975Z,56.87
2019-02-28T14:52:58.774Z,53.07
2019-02-28T14:55:32.769Z,52.83
2019-02-28T14:58:05.401Z,61.43
2019-02-28T15:00:38.922Z,58.37
2019-02-28T15:03:14.681Z,59.63
2019-02-28T15:05:47.211Z,57.67
2019-02-28T15:08:19.660Z,61.43
2019-02-28T15:10:53.254Z,54.73
2019-02-28T15:13:25.694Z,57.60
2019-02-28T15:15:58.214Z,57.30
2019-02-28T15:18:31.077Z,58.80
2019-02-28T15:21:04.530Z,58.57
2019-02-28T15:23:37.475Z,59.60
2019-02-28T15:26:10.070Z,61.00
2019-02-28T15:28:45.479Z,57.73
2019-02-28T15:31:16.997Z,58.10
2019-02-28T15:33:49.273Z,57.87
2019-02-28T15:36:24.162Z,55.10
2019-02-28T15:38:55.679Z,57.57
2019-02-28T15:41:30.638Z,59.93
2019-02-28T15:44:02.550Z,62.47
2019-02-28T15:46:35.984Z,64.03
2019-02-28T15:49:10.011Z,63.07
2019-02-28T15:51:42.789Z,60.67
2019-02-28T15:54:15.142Z,61.90
2019-02-28T15:56:47.746Z,64.57
2019-02-28T15:59:20.696Z,61.27
2019-02-28T16:01:52.804Z,65.03
2019-02-28T16:04:26.288Z,60.90
2019-02-28T16:06:59.549Z,69.23
2019-02-28T16:09:31.821Z,67.10
2019-02-28T16:12:04.521Z,64.50
2019-02-28T16:14:36.802Z,62.23
2019-02-28T16:17:09.317Z,61.53
2019-02-28T16:19:41.702Z,63.63
2019-02-28T16:22:14.678Z,47.97
2019-02-28T16:24:48.385Z,67.67
2019-02-28T16:27:21.261Z,72.27
2019-02-28T16:29:55.775Z,63.07
2019-02-28T16:32:27.807Z,68.50
2019-02-28T16:35:00.247Z,62.80
2019-02-28T16:37:35.049Z,63.90
2019-02-28T16:40:09.010Z,67.03
2019-02-28T16:42:43.462Z,65.63
2019-02-28T16:45:23.670Z,57.33
2019-02-28T16:47:59.195Z,63.60
2019-02-28T16:50:30.745Z,63.17
2019-02-28T16:53:03.870Z,65.73
2019-02-28T16:55:36.161Z,71.43
2019-02-28T16:58:08.401Z,63.20
2019-02-28T17:00:42.484Z,69.07
2019-02-28T17:03:15.947Z,60.10
2019-02-28T17:05:48.451Z,63.03
2019-02-28T17:08:20.832Z,60.20
2019-02-28T17:10:53.447Z,60.87
2019-02-28T17:13:35.506Z,63.73
2019-02-28T17:16:18.564Z,65.27
2019-02-28T17:18:53.489Z,60.87
2019-02-28T17:21:25.393Z,63.20
2019-02-28T17:23:57.602Z,58.43
2019-02-28T17:26:48.353Z,63.27
2019-02-28T17:29:29.850Z,55.67
2019-02-28T17:32:02.195Z,64.60
2019-02-28T17:34:34.438Z,61.30
2019-02-28T17:37:07.302Z,57.27
2019-02-28T17:39:39.982Z,60.87
2019-02-28T17:42:15.145Z,59.23
2019-02-28T17:45:15.573Z,44.20
2019-02-28T17:48:38.738Z,64.23
2019-02-28T17:51:18.292Z,57.07
2019-02-28T17:54:21.933Z,59.33
2019-02-28T17:57:32.035Z,56.27
2019-02-28T18:00:34.786Z,58.67
2019-02-28T18:04:08.254Z,58.23
2019-02-28T18:07:10.381Z,62.10
2019-02-28T18:10:00.334Z,61.77
2019-02-28T18:13:19.992Z,83.30
2019-02-28T18:15:59.306Z,103.43
2019-02-28T18:18:55.138Z,81.13
2019-02-28T18:22:09.458Z,77.37
2019-02-28T18:25:25.258Z,78.97
2019-02-28T18:28:46.506Z,75.87
2019-02-28T18:31:21.874Z,100.13
2019-02-28T18:34:01.450Z,101.37
2019-02-28T18:36:34.205Z,83.83
2019-02-28T18:39:11.403Z,72.03
2019-02-28T18:41:43.114Z,69.90
2019-02-28T18:44:15.750Z,86.73
2019-02-28T18:46:48.923Z,74.30
2019-02-28T18:49:21.741Z,73.73
2019-02-28T18:51:53.928Z,64.93
2019-02-28T18:54:26.183Z,67.87
2019-02-28T18:56:58.354Z,64.17
2019-02-28T18:59:30.694Z,62.50
2019-02-28T19:02:03.678Z,60.40
2019-02-28T19:04:35.965Z,68.27
2019-02-28T19:07:08.543Z,63.70
2019-02-28T19:09:40.749Z,70.50
2019-02-28T19:12:12.813Z,61.47
2019-02-28T19:14:45.390Z,64.63
2019-02-28T19:17:18.125Z,65.67
2019-02-28T19:19:50.706Z,70.03
2019-02-28T19:22:23.283Z,65.20
2019-02-28T19:24:55.414Z,72.87
2019-02-28T19:27:28.033Z,69.90
2019-02-28T19:30:00.285Z,71.97
2019-02-28T19:32:33.906Z,72.07
2019-02-28T19:35:06.396Z,69.60
2019-02-28T19:37:38.746Z,70.30
2019-02-28T19:40:11.137Z,63.17
2019-02-28T19:42:43.366Z,68.90
2019-02-28T19:45:15.961Z,73.83
2019-02-28T19:47:48.519Z,75.63
2019-02-28T19:50:20.754Z,68.30
2019-02-28T19:52:54.194Z,67.17
2019-02-28T19:55:26.473Z,70.97
2019-02-28T19:57:58.869Z,71.97
2019-02-28T20:00:31.621Z,69.67
2019-02-28T20:03:03.925Z,73.07
2019-02-28T20:05:36.338Z,69.50
2019-02-28T20:08:08.435Z,72.73
2019-02-28T20:10:40.957Z,72.50
2019-02-28T20:13:13.296Z,73.33
2019-02-28T20:15:45.731Z,77.53
2019-02-28T20:18:18.450Z,70.60
2019-02-28T20:20:50.782Z,73.80
2019-02-28T20:23:24.814Z,72.00
2019-02-28T20:25:57.018Z,72.07
2019-02-28T20:28:29.245Z,68.73
2019-02-28T20:31:01.787Z,71.83
2019-02-28T20:33:34.406Z,79.93
2019-02-28T20:36:07.036Z,76.40
2019-02-28T20:38:39.338Z,77.37
2019-02-28T20:41:11.611Z,74.33
2019-02-28T20:43:43.911Z,73.17
2019-02-28T20:46:16.166Z,82.17
2019-02-28T20:48:48.450Z,77.60
2019-02-28T20:51:22.034Z,72.73
2019-02-28T20:53:54.579Z,90.13
2019-02-28T20:56:26.835Z,76.53
2019-02-28T20:58:58.945Z,76.73
2019-02-28T21:01:31.323Z,79.90
2019-02-28T21:04:04.044Z,70.93
2019-02-28T21:06:36.603Z,74.03
2019-02-28T21:09:11.191Z,76.33
2019-02-28T21:11:43.525Z,74.20
2019-02-28T21:14:16.017Z,82.10
2019-02-28T21:16:48.393Z,66.83
2019-02-28T21:19:20.960Z,79.57
2019-02-28T21:21:53.433Z,78.10
2019-02-28T21:24:25.604Z,73.93
2019-02-28T21:26:57.701Z,70.67
2019-02-28T21:29:30.378Z,79.40
2019-02-28T21:32:05.911Z,72.57
2019-02-28T21:34:38.366Z,63.80
2019-02-28T21:37:11.015Z,70.40
2019-02-28T21:39:43.857Z,70.03
2019-02-28T21:42:16.217Z,67.73
2019-02-28T21:44:48.877Z,65.37
2019-02-28T21:47:21.062Z,67.13
2019-02-28T21:49:53.638Z,72.17
2019-02-28T21:52:26.014Z,71.53
2019-02-28T21:54:58.176Z,61.30
2019-02-28T21:57:30.767Z,55.10
2019-02-28T22:00:05.334Z,66.53
2019-02-28T22:02:37.820Z,57.00
2019-02-28T22:05:11.020Z,60.70
2019-02-28T22:07:44.583Z,64.30
2019-02-28T22:10:17.429Z,58.63
2019-02-28T22:12:49.751Z,56.93
2019-02-28T22:15:22.123Z,65.10
2019-02-28T22:17:54.518Z,57.07
2019-02-28T22:20:26.946Z,58.80
2019-02-28T22:22:59.290Z,56.77
2019-02-28T22:25:31.431Z,56.53
2019-02-28T22:28:03.765Z,50.33
2019-02-28T22:30:55.626Z,43.43
2019-02-28T22:33:36.914Z,55.97
2019-02-28T22:36:11.232Z,51.43
2019-02-28T22:38:43.722Z,53.33
2019-02-28T22:41:16.259Z,53.73
2019-02-28T22:43:48.348Z,56.20
2019-02-28T22:46:20.709Z,50.53
2019-02-28T22:48:53.303Z,51.53
2019-02-28T22:51:25.775Z,49.67
2019-02-28T22:53:58.267Z,55.43
2019-02-28T22:56:30.563Z,52.70
2019-02-28T22:59:02.987Z,51.60
2019-02-28T23:01:35.883Z,50.10
2019-02-28T23:04:08.302Z,55.17
2019-02-28T23:06:40.522Z,50.80
2019-02-28T23:09:12.962Z,48.47
2019-02-28T23:11:45.500Z,52.43
2019-02-28T23:14:18.101Z,49.50
2019-02-28T23:16:50.648Z,47.67
2019-02-28T23:19:23.096Z,52.53
2019-02-28T23:21:55.477Z,47.37
2019-02-28T23:24:27.948Z,47.17
2019-02-28T23:27:16.853Z,48.97
2019-02-28T23:30:18.976Z,48.40
2019-02-28T23:32:57.899Z,45.63
2019-02-28T23:35:33.420Z,48.30
2019-02-28T23:38:05.651Z,49.20
2019-02-28T23:40:37.860Z,46.77
2019-02-28T23:43:10.181Z,47.13
2019-02-28T23:45:42.701Z,42.60
2019-02-28T23:48:14.907Z,53.40
2019-02-28T23:50:47.237Z,48.73
2019-02-28T23:53:19.578Z,51.30
2019-02-28T23:55:51.760Z,50.57
2019-02-28T23:58:24.003Z,46.30
